sensor_id;sensor_type;location;lat;lon;timestamp;pressure;altitude;pressure_sealevel;temperature;humidity
72548;BME280;60570;50.848;6.776;2024-02-23T00:00:39;97991.94;;;10.92;69.72
72548;BME280;60570;50.848;6.776;2024-02-23T00:01:41;97991.56;;;10.90;70.04
72548;BME280;60570;50.848;6.776;2024-02-23T00:02:42;97995.91;;;10.91;69.93
72548;BME280;60570;50.848;6.776;2024-02-23T00:03:43;97993.53;;;10.89;69.60
72548;BME280;60570;50.848;6.776;2024-02-23T00:04:44;97993.53;;;10.89;69.84
72548;BME280;60570;50.848;6.776;2024-02-23T00:05:46;98000.25;;;10.88;69.82
72548;BME280;60570;50.848;6.776;2024-02-23T00:06:46;98010.19;;;10.89;69.82
72548;BME280;60570;50.848;6.776;2024-02-23T00:07:47;98009.00;;;10.87;69.78
72548;BME280;60570;50.848;6.776;2024-02-23T00:08:49;98018.13;;;10.87;70.03
72548;BME280;60570;50.848;6.776;2024-02-23T00:09:49;98022.13;;;10.86;70.10
72548;BME280;60570;50.848;6.776;2024-02-23T00:10:51;98025.28;;;10.84;70.17
72548;BME280;60570;50.848;6.776;2024-02-23T00:11:52;98034.00;;;10.87;70.04
72548;BME280;60570;50.848;6.776;2024-02-23T00:12:54;98036.00;;;10.86;70.17
72548;BME280;60570;50.848;6.776;2024-02-23T00:13:55;98042.72;;;10.85;69.92
72548;BME280;60570;50.848;6.776;2024-02-23T00:14:57;98038.38;;;10.84;70.20
72548;BME280;60570;50.848;6.776;2024-02-23T00:16:00;98040.75;;;10.86;70.24
72548;BME280;60570;50.848;6.776;2024-02-23T00:17:00;98038.38;;;10.84;70.20
72548;BME280;60570;50.848;6.776;2024-02-23T00:18:02;98048.69;;;10.87;70.05
72548;BME280;60570;50.848;6.776;2024-02-23T00:19:04;98041.56;;;10.86;70.08
72548;BME280;60570;50.848;6.776;2024-02-23T00:20:08;98036.00;;;10.86;70.18
72548;BME280;60570;50.848;6.776;2024-02-23T00:21:10;98043.13;;;10.83;70.32
72548;BME280;60570;50.848;6.776;2024-02-23T00:22:12;98048.69;;;10.83;70.25
72548;BME280;60570;50.848;6.776;2024-02-23T00:23:13;98041.16;;;10.84;70.44
72548;BME280;60570;50.848;6.776;2024-02-23T00:24:15;98041.16;;;10.84;70.43
72548;BME280;60570;50.848;6.776;2024-02-23T00:25:16;98043.13;;;10.83;70.33
72548;BME280;60570;50.848;6.776;2024-02-23T00:26:18;98055.06;;;10.84;70.11
72548;BME280;60570;50.848;6.776;2024-02-23T00:27:19;98054.66;;;10.82;70.56
72548;BME280;60570;50.848;6.776;2024-02-23T00:28:20;98058.59;;;10.81;70.30
72548;BME280;60570;50.848;6.776;2024-02-23T00:29:21;98064.97;;;10.81;70.18
72548;BME280;60570;50.848;6.776;2024-02-23T00:30:23;98058.59;;;10.81;70.33
72548;BME280;60570;50.848;6.776;2024-02-23T00:31:25;98063.34;;;10.80;70.32
72548;BME280;60570;50.848;6.776;2024-02-23T00:32:25;98060.56;;;10.80;70.28
72548;BME280;60570;50.848;6.776;2024-02-23T00:33:27;98057.81;;;10.80;70.17
72548;BME280;60570;50.848;6.776;2024-02-23T00:34:28;98065.72;;;10.78;70.07
72548;BME280;60570;50.848;6.776;2024-02-23T00:35:30;98074.88;;;10.79;70.23
72548;BME280;60570;50.848;6.776;2024-02-23T00:36:31;98066.94;;;10.77;70.02
72548;BME280;60570;50.848;6.776;2024-02-23T00:37:33;98070.13;;;10.79;70.14
72548;BME280;60570;50.848;6.776;2024-02-23T00:38:35;98064.16;;;10.77;70.14
72548;BME280;60570;50.848;6.776;2024-02-23T00:39:36;98065.75;;;10.75;69.94
72548;BME280;60570;50.848;6.776;2024-02-23T00:40:38;98069.31;;;10.75;70.11
72548;BME280;60570;50.848;6.776;2024-02-23T00:41:38;98070.50;;;10.74;70.28
72548;BME280;60570;50.848;6.776;2024-02-23T00:42:40;98068.13;;;10.76;69.98
72548;BME280;60570;50.848;6.776;2024-02-23T00:43:41;98078.06;;;10.74;70.16
72548;BME280;60570;50.848;6.776;2024-02-23T00:44:43;98071.28;;;10.71;70.22
72548;BME280;60570;50.848;6.776;2024-02-23T00:45:44;98072.91;;;10.72;70.08
72548;BME280;60570;50.848;6.776;2024-02-23T00:46:47;98070.91;;;10.73;69.98
72548;BME280;60570;50.848;6.776;2024-02-23T00:47:47;98075.28;;;10.74;69.97
72548;BME280;60570;50.848;6.776;2024-02-23T00:48:49;98077.25;;;10.73;69.42
72548;BME280;60570;50.848;6.776;2024-02-23T00:49:49;98072.91;;;10.72;69.66
72548;BME280;60570;50.848;6.776;2024-02-23T00:50:51;98078.06;;;10.70;69.62
72548;BME280;60570;50.848;6.776;2024-02-23T00:51:52;98070.13;;;10.72;69.72
72548;BME280;60570;50.848;6.776;2024-02-23T00:52:53;98077.25;;;10.70;69.57
72548;BME280;60570;50.848;6.776;2024-02-23T00:53:54;98082.81;;;10.70;69.46
72548;BME280;60570;50.848;6.776;2024-02-23T00:54:56;98082.81;;;10.70;69.66
72548;BME280;60570;50.848;6.776;2024-02-23T00:55:56;98082.41;;;10.68;69.79
72548;BME280;60570;50.848;6.776;2024-02-23T00:56:58;98085.19;;;10.68;69.75
72548;BME280;60570;50.848;6.776;2024-02-23T00:57:59;98087.97;;;10.68;69.84
72548;BME280;60570;50.848;6.776;2024-02-23T00:59:00;98091.13;;;10.66;69.72
72548;BME280;60570;50.848;6.776;2024-02-23T01:00:02;98090.34;;;10.66;69.80
72548;BME280;60570;50.848;6.776;2024-02-23T01:01:05;98094.28;;;10.65;69.93
72548;BME280;60570;50.848;6.776;2024-02-23T01:02:07;98092.31;;;10.65;69.72
72548;BME280;60570;50.848;6.776;2024-02-23T01:03:09;98093.91;;;10.66;70.05
72548;BME280;60570;50.848;6.776;2024-02-23T01:04:10;98099.84;;;10.65;70.00
72548;BME280;60570;50.848;6.776;2024-02-23T01:05:12;98103.03;;;10.63;69.91
72548;BME280;60570;50.848;6.776;2024-02-23T01:06:13;98100.25;;;10.63;69.51
72548;BME280;60570;50.848;6.776;2024-02-23T01:07:15;98099.44;;;10.63;69.75
72548;BME280;60570;50.848;6.776;2024-02-23T01:08:16;98108.97;;;10.62;69.85
72548;BME280;60570;50.848;6.776;2024-02-23T01:09:17;98107.38;;;10.61;70.04
72548;BME280;60570;50.848;6.776;2024-02-23T01:10:20;98114.94;;;10.60;69.47
72548;BME280;60570;50.848;6.776;2024-02-23T01:11:22;98118.06;;;10.59;69.98
72548;BME280;60570;50.848;6.776;2024-02-23T01:12:23;98116.91;;;10.60;69.73
72548;BME280;60570;50.848;6.776;2024-02-23T01:13:24;98128.00;;;10.60;69.60
72548;BME280;60570;50.848;6.776;2024-02-23T01:14:25;98121.25;;;10.57;69.60
72548;BME280;60570;50.848;6.776;2024-02-23T01:15:26;98122.84;;;10.58;69.85
72548;BME280;60570;50.848;6.776;2024-02-23T01:16:28;98120.47;;;10.57;69.91
72548;BME280;60570;50.848;6.776;2024-02-23T01:17:30;98120.47;;;10.57;69.87
72548;BME280;60570;50.848;6.776;2024-02-23T01:18:31;98119.28;;;10.54;69.62
72548;BME280;60570;50.848;6.776;2024-02-23T01:19:32;98123.63;;;10.55;69.92
72548;BME280;60570;50.848;6.776;2024-02-23T01:20:34;98115.69;;;10.54;69.49
72548;BME280;60570;50.848;6.776;2024-02-23T01:21:34;98123.22;;;10.53;69.64
72548;BME280;60570;50.848;6.776;2024-02-23T01:22:36;98119.66;;;10.53;69.83
72548;BME280;60570;50.848;6.776;2024-02-23T01:23:37;98120.44;;;10.53;69.79
72548;BME280;60570;50.848;6.776;2024-02-23T01:24:39;98126.00;;;10.53;69.74
72548;BME280;60570;50.848;6.776;2024-02-23T01:25:40;98129.97;;;10.52;69.85
72548;BME280;60570;50.848;6.776;2024-02-23T01:26:41;98133.56;;;10.53;69.57
72548;BME280;60570;50.848;6.776;2024-02-23T01:27:42;98136.69;;;10.51;69.79
72548;BME280;60570;50.848;6.776;2024-02-23T01:28:44;98137.91;;;10.50;69.62
72548;BME280;60570;50.848;6.776;2024-02-23T01:29:45;98139.88;;;10.50;69.55
72548;BME280;60570;50.848;6.776;2024-02-23T01:30:47;98146.63;;;10.52;69.39
72548;BME280;60570;50.848;6.776;2024-02-23T01:31:47;98140.69;;;10.54;69.58
72548;BME280;60570;50.848;6.776;2024-02-23T01:32:50;98141.06;;;10.52;69.42
72548;BME280;60570;50.848;6.776;2024-02-23T01:33:51;98142.25;;;10.51;69.72
72548;BME280;60570;50.848;6.776;2024-02-23T01:34:51;98142.66;;;10.50;69.20
72548;BME280;60570;50.848;6.776;2024-02-23T01:35:53;98135.13;;;10.47;69.63
72548;BME280;60570;50.848;6.776;2024-02-23T01:36:54;98139.88;;;10.46;69.48
72548;BME280;60570;50.848;6.776;2024-02-23T01:37:56;98146.22;;;10.47;69.55
72548;BME280;60570;50.848;6.776;2024-02-23T01:38:56;98142.25;;;10.44;69.35
72548;BME280;60570;50.848;6.776;2024-02-23T01:39:57;98152.53;;;10.47;69.07
72548;BME280;60570;50.848;6.776;2024-02-23T01:40:59;98141.44;;;10.44;69.28
72548;BME280;60570;50.848;6.776;2024-02-23T01:42:00;98153.75;;;10.43;69.54
72548;BME280;60570;50.848;6.776;2024-02-23T01:43:03;98156.13;;;10.44;69.41
72548;BME280;60570;50.848;6.776;2024-02-23T01:44:03;98157.31;;;10.43;69.29
72548;BME280;60570;50.848;6.776;2024-02-23T01:45:06;98160.47;;;10.42;69.64
72548;BME280;60570;50.848;6.776;2024-02-23T01:46:08;98163.66;;;10.44;69.53
72548;BME280;60570;50.848;6.776;2024-02-23T01:47:10;98160.47;;;10.42;69.61
72548;BME280;60570;50.848;6.776;2024-02-23T01:48:13;98157.69;;;10.38;69.52
72548;BME280;60570;50.848;6.776;2024-02-23T01:49:14;98154.16;;;10.41;70.01
72548;BME280;60570;50.848;6.776;2024-02-23T01:50:15;98160.88;;;10.40;69.58
72548;BME280;60570;50.848;6.776;2024-02-23T01:51:17;98159.69;;;10.41;69.51
72548;BME280;60570;50.848;6.776;2024-02-23T01:52:18;98168.38;;;10.40;69.53
72548;BME280;60570;50.848;6.776;2024-02-23T01:53:20;98167.63;;;10.39;69.40
72548;BME280;60570;50.848;6.776;2024-02-23T01:54:21;98161.25;;;10.39;69.46
72548;BME280;60570;50.848;6.776;2024-02-23T01:55:23;98165.22;;;10.38;69.65
72548;BME280;60570;50.848;6.776;2024-02-23T01:56:24;98159.66;;;10.38;69.65
72548;BME280;60570;50.848;6.776;2024-02-23T01:57:26;98172.38;;;10.39;69.39
72548;BME280;60570;50.848;6.776;2024-02-23T01:58:28;98174.34;;;10.38;69.59
72548;BME280;60570;50.848;6.776;2024-02-23T01:59:31;98169.59;;;10.39;69.39
72548;BME280;60570;50.848;6.776;2024-02-23T02:00:32;98171.56;;;10.38;69.47
72548;BME280;60570;50.848;6.776;2024-02-23T02:01:32;98166.00;;;10.35;69.21
72548;BME280;60570;50.848;6.776;2024-02-23T02:02:34;98172.75;;;10.37;69.60
72548;BME280;60570;50.848;6.776;2024-02-23T02:03:37;98179.47;;;10.36;69.56
72548;BME280;60570;50.848;6.776;2024-02-23T02:04:39;98170.00;;;10.37;69.55
72548;BME280;60570;50.848;6.776;2024-02-23T02:05:40;98176.69;;;10.33;69.74
72548;BME280;60570;50.848;6.776;2024-02-23T02:06:42;98174.31;;;10.35;69.21
72548;BME280;60570;50.848;6.776;2024-02-23T02:07:43;98177.50;;;10.33;69.28
72548;BME280;60570;50.848;6.776;2024-02-23T02:08:45;98183.81;;;10.30;69.48
72548;BME280;60570;50.848;6.776;2024-02-23T02:09:46;98178.28;;;10.30;69.32
72548;BME280;60570;50.848;6.776;2024-02-23T02:10:47;98172.72;;;10.30;69.51
72548;BME280;60570;50.848;6.776;2024-02-23T02:11:49;98176.69;;;10.29;69.36
72548;BME280;60570;50.848;6.776;2024-02-23T02:12:51;98170.75;;;10.27;69.39
72548;BME280;60570;50.848;6.776;2024-02-23T02:13:52;98176.28;;;10.27;69.20
72548;BME280;60570;50.848;6.776;2024-02-23T02:14:53;98171.53;;;10.31;69.17
72548;BME280;60570;50.848;6.776;2024-02-23T02:15:54;98170.75;;;10.31;69.13
72548;BME280;60570;50.848;6.776;2024-02-23T02:16:56;98176.69;;;10.33;68.81
72548;BME280;60570;50.848;6.776;2024-02-23T02:17:57;98177.50;;;10.30;69.30
72548;BME280;60570;50.848;6.776;2024-02-23T02:18:59;98172.72;;;10.30;69.29
72548;BME280;60570;50.848;6.776;2024-02-23T02:20:02;98175.50;;;10.30;69.39
72548;BME280;60570;50.848;6.776;2024-02-23T02:21:04;98170.34;;;10.32;69.03
72548;BME280;60570;50.848;6.776;2024-02-23T02:22:06;98177.09;;;10.31;69.11
72548;BME280;60570;50.848;6.776;2024-02-23T02:23:07;98183.41;;;10.28;69.13
72548;BME280;60570;50.848;6.776;2024-02-23T02:24:09;98185.00;;;10.29;68.85
72548;BME280;60570;50.848;6.776;2024-02-23T02:25:09;98183.81;;;10.30;69.09
72548;BME280;60570;50.848;6.776;2024-02-23T02:26:10;98191.38;;;10.30;69.25
72548;BME280;60570;50.848;6.776;2024-02-23T02:27:12;98189.75;;;10.29;69.11
72548;BME280;60570;50.848;6.776;2024-02-23T02:28:13;98190.16;;;10.27;69.05
72548;BME280;60570;50.848;6.776;2024-02-23T02:29:13;98188.16;;;10.24;69.13
72548;BME280;60570;50.848;6.776;2024-02-23T02:30:15;98193.69;;;10.24;69.26
72548;BME280;60570;50.848;6.776;2024-02-23T02:31:16;98193.69;;;10.24;69.19
72548;BME280;60570;50.848;6.776;2024-02-23T02:32:18;98188.53;;;10.23;69.17
72548;BME280;60570;50.848;6.776;2024-02-23T02:33:18;98190.91;;;10.21;69.37
72548;BME280;60570;50.848;6.776;2024-02-23T02:34:21;98194.88;;;10.20;69.54
72548;BME280;60570;50.848;6.776;2024-02-23T02:35:22;98197.25;;;10.18;68.99
72548;BME280;60570;50.848;6.776;2024-02-23T02:36:24;98203.56;;;10.18;69.31
72548;BME280;60570;50.848;6.776;2024-02-23T02:37:25;98202.81;;;10.18;69.51
72548;BME280;60570;50.848;6.776;2024-02-23T02:38:25;98209.53;;;10.17;69.73
72548;BME280;60570;50.848;6.776;2024-02-23T02:39:27;98202.78;;;10.14;69.49
72548;BME280;60570;50.848;6.776;2024-02-23T02:40:28;98204.38;;;10.15;69.66
72548;BME280;60570;50.848;6.776;2024-02-23T02:41:29;98205.16;;;10.16;69.35
72548;BME280;60570;50.848;6.776;2024-02-23T02:42:31;98216.28;;;10.16;69.36
72548;BME280;60570;50.848;6.776;2024-02-23T02:43:32;98212.69;;;10.12;69.52
72548;BME280;60570;50.848;6.776;2024-02-23T02:44:34;98215.06;;;10.13;69.24
72548;BME280;60570;50.848;6.776;2024-02-23T02:45:34;98212.69;;;10.12;69.15
72548;BME280;60570;50.848;6.776;2024-02-23T02:46:35;98220.22;;;10.15;69.42
72548;BME280;60570;50.848;6.776;2024-02-23T02:47:37;98211.13;;;10.14;69.37
72548;BME280;60570;50.848;6.776;2024-02-23T02:48:38;98214.66;;;10.15;69.01
72548;BME280;60570;50.848;6.776;2024-02-23T02:49:40;98218.63;;;10.14;69.09
72548;BME280;60570;50.848;6.776;2024-02-23T02:50:42;98221.00;;;10.12;69.39
72548;BME280;60570;50.848;6.776;2024-02-23T02:51:43;98227.72;;;10.11;68.74
72548;BME280;60570;50.848;6.776;2024-02-23T02:52:45;98219.81;;;10.13;68.86
72548;BME280;60570;50.848;6.776;2024-02-23T02:53:46;98234.09;;;10.15;69.03
72548;BME280;60570;50.848;6.776;2024-02-23T02:54:48;98230.13;;;10.12;68.98
72548;BME280;60570;50.848;6.776;2024-02-23T02:55:49;98226.94;;;10.10;69.05
72548;BME280;60570;50.848;6.776;2024-02-23T02:56:51;98234.06;;;10.11;69.16
72548;BME280;60570;50.848;6.776;2024-02-23T02:57:54;98222.16;;;10.11;69.08
72548;BME280;60570;50.848;6.776;2024-02-23T02:58:55;98232.50;;;10.10;68.91
72548;BME280;60570;50.848;6.776;2024-02-23T02:59:57;98233.63;;;10.09;69.06
72548;BME280;60570;50.848;6.776;2024-02-23T03:00:58;98234.47;;;10.10;68.85
72548;BME280;60570;50.848;6.776;2024-02-23T03:01:59;98232.81;;;10.09;68.94
72548;BME280;60570;50.848;6.776;2024-02-23T03:03:00;98236.78;;;10.08;68.98
72548;BME280;60570;50.848;6.776;2024-02-23T03:04:01;98235.59;;;10.05;68.98
72548;BME280;60570;50.848;6.776;2024-02-23T03:05:05;98229.28;;;10.08;69.10
72548;BME280;60570;50.848;6.776;2024-02-23T03:06:06;98238.38;;;10.09;69.01
72548;BME280;60570;50.848;6.776;2024-02-23T03:07:07;98235.19;;;10.07;69.04
72548;BME280;60570;50.848;6.776;2024-02-23T03:08:08;98236.38;;;10.06;68.92
72548;BME280;60570;50.848;6.776;2024-02-23T03:09:09;98228.81;;;10.03;69.26
72548;BME280;60570;50.848;6.776;2024-02-23T03:10:10;98234.78;;;10.05;69.08
72548;BME280;60570;50.848;6.776;2024-02-23T03:11:12;98237.53;;;10.01;69.12
72548;BME280;60570;50.848;6.776;2024-02-23T03:12:12;98232.78;;;9.98;69.06
72548;BME280;60570;50.848;6.776;2024-02-23T03:13:14;98238.34;;;10.02;69.32
72548;BME280;60570;50.848;6.776;2024-02-23T03:14:15;98239.56;;;10.04;69.08
72548;BME280;60570;50.848;6.776;2024-02-23T03:15:18;98238.75;;;10.04;68.90
72548;BME280;60570;50.848;6.776;2024-02-23T03:16:20;98233.22;;;10.04;69.08
72548;BME280;60570;50.848;6.776;2024-02-23T03:17:23;98231.22;;;10.04;69.20
72548;BME280;60570;50.848;6.776;2024-02-23T03:18:24;98231.59;;;10.03;69.15
72548;BME280;60570;50.848;6.776;2024-02-23T03:19:27;98236.38;;;10.02;69.35
72548;BME280;60570;50.848;6.776;2024-02-23T03:20:29;98235.97;;;10.04;69.00
72548;BME280;60570;50.848;6.776;2024-02-23T03:21:31;98233.19;;;10.00;69.06
72548;BME280;60570;50.848;6.776;2024-02-23T03:22:32;98237.94;;;10.00;69.05
72548;BME280;60570;50.848;6.776;2024-02-23T03:23:33;98230.81;;;9.99;69.19
72548;BME280;60570;50.848;6.776;2024-02-23T03:24:34;98232.00;;;10.01;69.34
72548;BME280;60570;50.848;6.776;2024-02-23T03:25:36;98231.59;;;9.99;69.35
72548;BME280;60570;50.848;6.776;2024-02-23T03:26:37;98230.81;;;9.99;69.33
72548;BME280;60570;50.848;6.776;2024-02-23T03:27:38;98232.78;;;10.02;68.82
72548;BME280;60570;50.848;6.776;2024-02-23T03:28:39;98231.59;;;10.03;68.65
72548;BME280;60570;50.848;6.776;2024-02-23T03:29:41;98220.13;;;10.01;68.78
72548;BME280;60570;50.848;6.776;2024-02-23T03:30:41;98220.13;;;10.04;68.83
72548;BME280;60570;50.848;6.776;2024-02-23T03:31:43;98226.06;;;10.03;69.01
72548;BME280;60570;50.848;6.776;2024-02-23T03:32:44;98227.66;;;10.04;68.99
72548;BME280;60570;50.848;6.776;2024-02-23T03:33:47;98230.03;;;10.02;68.93
72548;BME280;60570;50.848;6.776;2024-02-23T03:34:49;98230.41;;;10.00;69.02
72548;BME280;60570;50.848;6.776;2024-02-23T03:35:51;98238.75;;;10.00;69.04
72548;BME280;60570;50.848;6.776;2024-02-23T03:36:51;98238.75;;;10.00;68.92
72548;BME280;60570;50.848;6.776;2024-02-23T03:37:53;98234.34;;;9.99;69.12
72548;BME280;60570;50.848;6.776;2024-02-23T03:38:54;98238.31;;;9.98;68.83
72548;BME280;60570;50.848;6.776;2024-02-23T03:39:55;98237.94;;;10.00;68.76
72548;BME280;60570;50.848;6.776;2024-02-23T03:40:56;98234.75;;;9.98;68.77
72548;BME280;60570;50.848;6.776;2024-02-23T03:41:58;98235.16;;;9.96;68.96
72548;BME280;60570;50.848;6.776;2024-02-23T03:42:58;98236.72;;;9.97;68.82
72548;BME280;60570;50.848;6.776;2024-02-23T03:44:00;98236.72;;;9.97;68.78
72548;BME280;60570;50.848;6.776;2024-02-23T03:45:01;98240.28;;;9.94;68.64
72548;BME280;60570;50.848;6.776;2024-02-23T03:46:03;98239.09;;;9.95;68.60
72548;BME280;60570;50.848;6.776;2024-02-23T03:47:03;98239.50;;;9.97;68.95
72548;BME280;60570;50.848;6.776;2024-02-23T03:48:06;98240.28;;;9.94;68.95
72548;BME280;60570;50.848;6.776;2024-02-23T03:49:07;98237.50;;;9.94;68.87
72548;BME280;60570;50.848;6.776;2024-02-23T03:50:09;98243.44;;;9.92;68.65
72548;BME280;60570;50.848;6.776;2024-02-23T03:51:11;98240.28;;;9.94;68.86
72548;BME280;60570;50.848;6.776;2024-02-23T03:52:13;98239.09;;;9.95;68.71
72548;BME280;60570;50.848;6.776;2024-02-23T03:53:14;98239.47;;;9.93;68.77
72548;BME280;60570;50.848;6.776;2024-02-23T03:54:15;98245.41;;;9.92;68.92
72548;BME280;60570;50.848;6.776;2024-02-23T03:55:16;98241.44;;;9.93;68.46
72548;BME280;60570;50.848;6.776;2024-02-23T03:56:18;98247.78;;;9.93;68.75
72548;BME280;60570;50.848;6.776;2024-02-23T03:57:18;98244.28;;;9.97;68.57
72548;BME280;60570;50.848;6.776;2024-02-23T03:58:20;98243.84;;;9.94;68.47
72548;BME280;60570;50.848;6.776;2024-02-23T03:59:21;98252.19;;;9.94;68.69
72548;BME280;60570;50.848;6.776;2024-02-23T04:00:21;98252.94;;;9.95;68.55
72548;BME280;60570;50.848;6.776;2024-02-23T04:01:23;98246.22;;;9.92;68.83
72548;BME280;60570;50.848;6.776;2024-02-23T04:02:24;98243.06;;;9.94;68.79
72548;BME280;60570;50.848;6.776;2024-02-23T04:03:25;98244.22;;;9.93;68.79
72548;BME280;60570;50.848;6.776;2024-02-23T04:04:27;98248.59;;;9.90;68.98
72548;BME280;60570;50.848;6.776;2024-02-23T04:05:27;98240.63;;;9.89;69.07
72548;BME280;60570;50.848;6.776;2024-02-23T04:06:30;98240.63;;;9.89;68.82
72548;BME280;60570;50.848;6.776;2024-02-23T04:07:31;98243.41;;;9.89;69.00
72548;BME280;60570;50.848;6.776;2024-02-23T04:08:33;98241.84;;;9.91;69.03
72548;BME280;60570;50.848;6.776;2024-02-23T04:09:33;98245.81;;;9.90;69.04
72548;BME280;60570;50.848;6.776;2024-02-23T04:10:35;98249.00;;;9.96;68.75
72548;BME280;60570;50.848;6.776;2024-02-23T04:11:36;98251.78;;;9.92;68.74
72548;BME280;60570;50.848;6.776;2024-02-23T04:12:38;98252.94;;;9.95;68.92
72548;BME280;60570;50.848;6.776;2024-02-23T04:13:38;98249.81;;;9.97;68.80
72548;BME280;60570;50.848;6.776;2024-02-23T04:14:40;98251.78;;;9.96;68.46
72548;BME280;60570;50.848;6.776;2024-02-23T04:15:40;98254.16;;;9.94;68.67
72548;BME280;60570;50.848;6.776;2024-02-23T04:16:42;98254.94;;;9.94;68.76
72548;BME280;60570;50.848;6.776;2024-02-23T04:17:43;98250.97;;;9.92;69.03
72548;BME280;60570;50.848;6.776;2024-02-23T04:18:44;98242.66;;;9.92;69.24
72548;BME280;60570;50.848;6.776;2024-02-23T04:19:45;98243.44;;;9.92;68.87
72548;BME280;60570;50.848;6.776;2024-02-23T04:20:47;98249.78;;;9.93;69.00
72548;BME280;60570;50.848;6.776;2024-02-23T04:21:49;98249.00;;;9.92;68.83
72548;BME280;60570;50.848;6.776;2024-02-23T04:22:50;98253.34;;;9.93;68.89
72548;BME280;60570;50.848;6.776;2024-02-23T04:23:51;98255.31;;;9.93;69.04
72548;BME280;60570;50.848;6.776;2024-02-23T04:24:53;98258.47;;;9.91;68.82
72548;BME280;60570;50.848;6.776;2024-02-23T04:25:53;98254.53;;;9.92;68.75
72548;BME280;60570;50.848;6.776;2024-02-23T04:26:54;98258.91;;;9.93;68.62
72548;BME280;60570;50.848;6.776;2024-02-23T04:27:56;98258.09;;;9.93;68.48
72548;BME280;60570;50.848;6.776;2024-02-23T04:28:57;98254.16;;;9.94;68.71
72548;BME280;60570;50.848;6.776;2024-02-23T04:29:58;98254.13;;;9.90;68.52
72548;BME280;60570;50.848;6.776;2024-02-23T04:30:59;98252.53;;;9.89;68.69
72548;BME280;60570;50.848;6.776;2024-02-23T04:32:02;98255.31;;;9.93;68.63
72548;BME280;60570;50.848;6.776;2024-02-23T04:33:03;98254.91;;;9.91;68.70
72548;BME280;60570;50.848;6.776;2024-02-23T04:34:05;98250.53;;;9.86;68.57
72548;BME280;60570;50.848;6.776;2024-02-23T04:35:06;98260.81;;;9.86;68.80
72548;BME280;60570;50.848;6.776;2024-02-23T04:36:08;98257.25;;;9.85;69.11
72548;BME280;60570;50.848;6.776;2024-02-23T04:37:11;98257.25;;;9.85;68.90
72548;BME280;60570;50.848;6.776;2024-02-23T04:38:12;98254.50;;;9.89;68.65
72548;BME280;60570;50.848;6.776;2024-02-23T04:39:13;98254.13;;;9.90;68.16
72548;BME280;60570;50.848;6.776;2024-02-23T04:40:14;98256.13;;;9.93;68.68
72548;BME280;60570;50.848;6.776;2024-02-23T04:41:19;98260.03;;;9.85;68.69
72548;BME280;60570;50.848;6.776;2024-02-23T04:42:20;98249.34;;;9.87;68.51
72548;BME280;60570;50.848;6.776;2024-02-23T04:43:21;98256.09;;;9.86;68.36
72548;BME280;60570;50.848;6.776;2024-02-23T04:44:23;98254.88;;;9.84;68.50
72548;BME280;60570;50.848;6.776;2024-02-23T04:45:25;98257.22;;;9.82;68.73
72548;BME280;60570;50.848;6.776;2024-02-23T04:46:25;98260.44;;;9.87;68.80
72548;BME280;60570;50.848;6.776;2024-02-23T04:47:27;98262.03;;;9.85;68.68
72548;BME280;60570;50.848;6.776;2024-02-23T04:48:28;98269.97;;;9.90;68.75
72548;BME280;60570;50.848;6.776;2024-02-23T04:49:31;98269.16;;;9.89;68.67
72548;BME280;60570;50.848;6.776;2024-02-23T04:50:31;98264.78;;;9.85;68.92
72548;BME280;60570;50.848;6.776;2024-02-23T04:51:33;98266.75;;;9.84;68.69
72548;BME280;60570;50.848;6.776;2024-02-23T04:52:35;98255.28;;;9.86;69.13
72548;BME280;60570;50.848;6.776;2024-02-23T04:53:36;98266.38;;;9.86;68.78
72548;BME280;60570;50.848;6.776;2024-02-23T04:54:37;98260.03;;;9.89;68.60
72548;BME280;60570;50.848;6.776;2024-02-23T04:55:38;98260.84;;;9.93;68.32
72548;BME280;60570;50.848;6.776;2024-02-23T04:56:41;98254.16;;;9.94;68.30
72548;BME280;60570;50.848;6.776;2024-02-23T04:57:41;98257.72;;;9.94;68.47
72548;BME280;60570;50.848;6.776;2024-02-23T04:58:43;98251.78;;;9.92;68.58
72548;BME280;60570;50.848;6.776;2024-02-23T04:59:44;98259.28;;;9.92;68.61
72548;BME280;60570;50.848;6.776;2024-02-23T05:00:46;98261.22;;;9.88;68.36
72548;BME280;60570;50.848;6.776;2024-02-23T05:01:46;98261.59;;;9.83;68.84
72548;BME280;60570;50.848;6.776;2024-02-23T05:02:48;98265.22;;;9.90;68.68
72548;BME280;60570;50.848;6.776;2024-02-23T05:03:49;98264.41;;;9.90;68.46
72548;BME280;60570;50.848;6.776;2024-02-23T05:04:51;98264.41;;;9.90;68.38
72548;BME280;60570;50.848;6.776;2024-02-23T05:05:52;98254.13;;;9.90;68.52
72548;BME280;60570;50.848;6.776;2024-02-23T05:06:54;98260.03;;;9.85;68.31
72548;BME280;60570;50.848;6.776;2024-02-23T05:07:56;98254.16;;;9.94;67.99
72548;BME280;60570;50.848;6.776;2024-02-23T05:08:58;98263.22;;;9.87;68.16
72548;BME280;60570;50.848;6.776;2024-02-23T05:09:58;98264.03;;;9.95;68.25
72548;BME280;60570;50.848;6.776;2024-02-23T05:11:00;98260.84;;;9.89;68.05
72548;BME280;60570;50.848;6.776;2024-02-23T05:12:01;98258.84;;;9.83;68.15
72548;BME280;60570;50.848;6.776;2024-02-23T05:13:02;98254.47;;;9.82;68.27
72548;BME280;60570;50.848;6.776;2024-02-23T05:14:03;98252.84;;;9.77;68.56
72548;BME280;60570;50.848;6.776;2024-02-23T05:15:05;98252.81;;;9.74;68.62
72548;BME280;60570;50.848;6.776;2024-02-23T05:16:06;98250.84;;;9.74;68.54
72548;BME280;60570;50.848;6.776;2024-02-23T05:17:08;98255.25;;;9.79;68.38
72548;BME280;60570;50.848;6.776;2024-02-23T05:18:08;98255.66;;;9.81;68.10
72548;BME280;60570;50.848;6.776;2024-02-23T05:19:10;98254.44;;;9.78;68.28
72548;BME280;60570;50.848;6.776;2024-02-23T05:20:12;98252.84;;;9.77;68.45
72548;BME280;60570;50.848;6.776;2024-02-23T05:21:14;98256.38;;;9.74;68.42
72548;BME280;60570;50.848;6.776;2024-02-23T05:22:16;98242.56;;;9.81;68.49
72548;BME280;60570;50.848;6.776;2024-02-23T05:23:18;98248.09;;;9.78;68.57
72548;BME280;60570;50.848;6.776;2024-02-23T05:24:19;98248.47;;;9.73;68.27
72548;BME280;60570;50.848;6.776;2024-02-23T05:25:20;98243.69;;;9.73;68.63
72548;BME280;60570;50.848;6.776;2024-02-23T05:26:22;98240.53;;;9.71;68.75
72548;BME280;60570;50.848;6.776;2024-02-23T05:27:23;98237.31;;;9.66;68.43